createdAt,value
2018-06-19T00:01:20.346Z,18.20
2018-06-19T00:04:04.412Z,18.20
2018-06-19T00:06:59.250Z,18.10
2018-06-19T00:09:30.262Z,18.10
2018-06-19T00:12:01.050Z,18.10
2018-06-19T00:14:39.529Z,18.00
2018-06-19T00:17:16.813Z,17.90
2018-06-19T00:19:58.364Z,17.90
2018-06-19T00:22:31.132Z,17.80
2018-06-19T00:25:06.414Z,17.80
2018-06-19T00:27:41.999Z,17.70
2018-06-19T00:30:17.852Z,17.70
2018-06-19T00:32:52.548Z,17.70
2018-06-19T00:35:24.822Z,17.70
2018-06-19T00:37:59.091Z,17.60
2018-06-19T00:40:33.790Z,17.60
2018-06-19T00:45:50.477Z,17.60
2018-06-19T00:48:21.309Z,17.50
2018-06-19T00:50:56.145Z,17.60
2018-06-19T00:53:27.578Z,17.60
2018-06-19T00:56:08.935Z,17.60
2018-06-19T00:58:41.763Z,17.50
2018-06-19T01:01:13.573Z,17.50
2018-06-19T01:03:44.013Z,17.50
2018-06-19T01:06:15.667Z,17.50
2018-06-19T01:08:46.923Z,17.50
2018-06-19T01:11:19.296Z,17.50
2018-06-19T01:13:54.698Z,17.40
2018-06-19T01:16:28.020Z,17.40
2018-06-19T01:19:00.282Z,17.40
2018-06-19T01:21:34.162Z,17.30
2018-06-19T01:24:10.479Z,17.30
2018-06-19T01:26:46.297Z,17.30
2018-06-19T01:29:22.908Z,17.30
2018-06-19T01:36:43.424Z,17.20
2018-06-19T01:42:44.126Z,17.20
2018-06-19T01:55:58.257Z,17.10
2018-06-19T01:58:45.706Z,17.10
2018-06-19T02:01:44.378Z,17.10
2018-06-19T02:07:17.675Z,17.10
2018-06-19T02:10:25.235Z,17.00
2018-06-19T02:13:57.081Z,16.90
2018-06-19T02:16:32.313Z,17.00
2018-06-19T02:19:14.723Z,16.90
2018-06-19T02:21:55.864Z,16.90
2018-06-19T02:24:27.773Z,16.90
2018-06-19T02:27:06.009Z,16.80
2018-06-19T02:33:57.315Z,16.90
2018-06-19T02:36:33.692Z,16.90
2018-06-19T02:39:39.963Z,16.80
2018-06-19T02:42:27.998Z,16.80
2018-06-19T02:45:00.360Z,16.70
2018-06-19T02:47:50.133Z,16.70
2018-06-19T02:57:18.286Z,16.70
2018-06-19T03:05:39.695Z,16.60
2018-06-19T03:08:34.293Z,16.60
2018-06-19T03:11:13.406Z,16.60
2018-06-19T03:17:08.657Z,16.60
2018-06-19T03:19:51.773Z,16.60
2018-06-19T03:22:37.077Z,16.50
2018-06-19T03:25:39.420Z,16.50
2018-06-19T03:28:29.006Z,16.40
2018-06-19T03:37:42.062Z,16.50
2018-06-19T03:40:14.345Z,16.40
2018-06-19T03:46:26.638Z,16.40
2018-06-19T03:49:06.690Z,16.40
2018-06-19T03:59:40.162Z,16.50
2018-06-19T04:02:12.895Z,16.50
2018-06-19T04:05:12.355Z,16.50
2018-06-19T04:08:17.115Z,16.50
2018-06-19T04:16:00.294Z,16.60
2018-06-19T04:18:58.505Z,16.60
2018-06-19T04:22:41.945Z,16.60
2018-06-19T04:25:47.671Z,16.60
2018-06-19T04:55:52.584Z,17.20
2018-06-19T04:58:47.438Z,17.20
2018-06-19T05:01:40.276Z,17.20
2018-06-19T05:04:54.074Z,17.20
2018-06-19T05:07:37.509Z,17.20
2018-06-19T05:10:20.878Z,17.30
2018-06-19T05:13:03.830Z,17.30
2018-06-19T05:15:45.803Z,17.30
2018-06-19T05:31:55.641Z,17.30
2018-06-19T05:34:53.139Z,17.40
2018-06-19T05:37:41.478Z,17.50
2018-06-19T05:40:50.653Z,17.60
2018-06-19T05:45:35.801Z,17.70
2018-06-19T09:52:04.960Z,20.50
2018-06-19T09:54:46.183Z,20.30
2018-06-19T09:57:38.314Z,20.40
2018-06-19T10:00:35.599Z,20.80
2018-06-19T10:03:12.756Z,20.70
2018-06-19T10:05:50.954Z,20.80
2018-06-19T10:08:29.650Z,20.80
2018-06-19T10:11:02.471Z,21.10
2018-06-19T10:13:34.975Z,21.60
2018-06-19T10:16:12.637Z,21.80
2018-06-19T10:18:44.690Z,21.70
2018-06-19T10:21:19.863Z,21.50
2018-06-19T10:23:56.863Z,21.50
2018-06-19T10:33:24.139Z,21.50
2018-06-19T10:36:02.889Z,21.40
2018-06-19T10:39:05.913Z,21.60
2018-06-19T10:42:10.262Z,21.70
2018-06-19T10:44:45.826Z,21.70
2018-06-19T10:47:17.530Z,21.90
2018-06-19T10:49:54.234Z,22.10
2018-06-19T10:52:31.701Z,21.90
2018-06-19T10:55:03.296Z,21.90
2018-06-19T10:58:12.053Z,21.70
2018-06-19T11:00:50.245Z,21.60
2018-06-19T11:03:21.218Z,21.40
2018-06-19T11:08:29.765Z,21.50
2018-06-19T11:11:20.016Z,21.50
2018-06-19T11:14:10.390Z,21.70
2018-06-19T11:17:09.473Z,22.00
2018-06-19T11:19:51.944Z,22.20
2018-06-19T11:25:49.844Z,22.80
2018-06-19T11:28:24.957Z,22.90
2018-06-19T11:37:37.038Z,22.50
2018-06-19T11:40:08.164Z,22.20
2018-06-19T11:42:43.780Z,22.20
2018-06-19T11:45:15.780Z,22.00
2018-06-19T11:47:47.060Z,21.70
2018-06-19T11:50:17.617Z,21.60
2018-06-19T11:53:07.081Z,21.60
2018-06-19T11:55:45.457Z,21.70
2018-06-19T11:58:15.335Z,21.90
2018-06-19T12:00:46.352Z,22.00
2018-06-19T12:03:17.399Z,22.20
2018-06-19T12:05:48.310Z,22.10
2018-06-19T12:08:18.391Z,22.40
2018-06-19T12:13:18.867Z,22.80
2018-06-19T12:18:19.997Z,23.00
2018-06-19T12:20:54.490Z,23.20
2018-06-19T12:23:32.802Z,23.10
2018-06-19T12:26:25.095Z,23.40
2018-06-19T12:28:55.239Z,24.00
2018-06-19T12:34:02.316Z,23.60
2018-06-19T12:36:33.030Z,23.20
2018-06-19T12:39:04.727Z,23.00
2018-06-19T12:41:44.917Z,22.70
2018-06-19T12:44:18.252Z,22.60
2018-06-19T12:46:48.703Z,22.60
2018-06-19T12:49:30.396Z,22.70
2018-06-19T12:52:12.480Z,22.60
2018-06-19T12:55:12.268Z,22.60
2018-06-19T12:57:43.751Z,22.70
2018-06-19T13:00:17.569Z,22.70
2018-06-19T13:05:45.490Z,22.60
2018-06-19T13:08:17.042Z,22.40
2018-06-19T13:10:57.369Z,22.60
2018-06-19T13:13:40.902Z,22.50
2018-06-19T13:19:44.059Z,22.90
2018-06-19T13:25:00.974Z,23.20
2018-06-19T13:27:33.692Z,23.30
2018-06-19T13:33:48.051Z,23.50
2018-06-19T13:36:21.217Z,23.40
2018-06-19T13:38:51.639Z,23.00
2018-06-19T13:41:34.177Z,22.80
2018-06-19T13:44:15.706Z,22.80
2018-06-19T13:46:45.650Z,22.80
2018-06-19T13:49:16.306Z,22.80
2018-06-19T13:51:49.511Z,22.80
2018-06-19T13:57:09.384Z,23.00
2018-06-19T13:59:42.126Z,23.10
2018-06-19T14:02:12.956Z,22.90
2018-06-19T14:04:42.564Z,23.10
2018-06-19T14:07:18.001Z,23.10
2018-06-19T14:10:00.874Z,23.00
2018-06-19T14:15:46.798Z,22.80
2018-06-19T14:18:40.721Z,22.80
2018-06-19T14:21:18.004Z,22.80
2018-06-19T14:23:55.065Z,23.00
2018-06-19T14:26:38.101Z,23.00
2018-06-19T14:29:09.380Z,23.10
2018-06-19T14:32:10.883Z,23.30
2018-06-19T14:35:23.147Z,23.50
2018-06-19T14:38:00.161Z,24.00
2018-06-19T14:40:31.206Z,24.50
2018-06-19T14:43:01.343Z,24.50
2018-06-19T14:45:32.844Z,24.50
2018-06-19T14:48:03.073Z,24.40
2018-06-19T14:53:32.382Z,24.50
2018-06-19T14:56:15.684Z,24.30
2018-06-19T14:58:53.858Z,24.20
2018-06-19T15:02:15.500Z,24.10
2018-06-19T15:04:47.583Z,23.80
2018-06-19T15:07:20.181Z,23.90
2018-06-19T15:10:02.134Z,23.80
2018-06-19T15:12:42.784Z,23.60
2018-06-19T15:17:55.372Z,24.00
2018-06-19T15:20:26.062Z,23.60
2018-06-19T15:22:56.802Z,23.30
2018-06-19T15:25:27.109Z,23.10
2018-06-19T15:27:56.789Z,23.20
2018-06-19T15:30:26.755Z,23.20
2018-06-19T15:32:56.375Z,23.40
2018-06-19T15:35:25.885Z,23.50
2018-06-19T15:40:26.022Z,23.60
2018-06-19T15:42:55.722Z,23.60
2018-06-19T15:45:36.762Z,23.70
2018-06-19T15:48:19.508Z,23.90
2018-06-19T15:50:50.305Z,24.20
2018-06-19T15:53:20.370Z,24.10
2018-06-19T15:55:52.533Z,23.90
2018-06-19T15:58:22.680Z,24.00
2018-06-19T16:00:53.089Z,24.30
2018-06-19T16:03:49.967Z,24.40
2018-06-19T16:06:23.372Z,24.30
2018-06-19T16:09:36.406Z,24.20
2018-06-19T16:18:45.535Z,24.20
2018-06-19T16:21:18.610Z,24.20
2018-06-19T16:26:20.452Z,24.40
2018-06-19T16:28:55.968Z,24.40
2018-06-19T16:31:29.488Z,24.30
2018-06-19T16:34:05.346Z,24.30
2018-06-19T16:36:40.084Z,24.20
2018-06-19T16:39:15.992Z,24.50
2018-06-19T16:41:49.365Z,24.60
2018-06-19T16:44:23.361Z,24.70
2018-06-19T16:46:58.050Z,24.60
2018-06-19T16:54:48.165Z,24.20
2018-06-19T16:57:17.498Z,24.20
2018-06-19T16:59:48.260Z,23.80
2018-06-19T17:04:51.770Z,24.00
2018-06-19T17:07:22.570Z,24.20
2018-06-19T17:10:25.507Z,24.30
2018-06-19T17:12:57.327Z,24.10
2018-06-19T17:15:34.618Z,24.00
2018-06-19T17:18:14.648Z,23.90
2018-06-19T17:20:48.642Z,23.90
2018-06-19T17:23:23.587Z,24.10
2018-06-19T17:25:55.182Z,24.30
2018-06-19T17:28:34.987Z,23.90
2018-06-19T17:31:15.837Z,23.80
2018-06-19T17:33:54.610Z,23.90
2018-06-19T17:36:26.899Z,23.80
2018-06-19T17:39:04.877Z,23.90
2018-06-19T17:41:40.786Z,24.10
2018-06-19T17:44:26.465Z,24.20
2018-06-19T17:47:01.637Z,24.20
2018-06-19T17:49:32.301Z,23.80
2018-06-19T17:52:04.334Z,23.60
2018-06-19T17:54:38.145Z,23.70
2018-06-19T17:57:08.196Z,23.70
2018-06-19T18:02:14.301Z,23.40
2018-06-19T18:04:48.717Z,23.40
2018-06-19T18:07:19.196Z,23.60
2018-06-19T18:15:14.154Z,23.40
2018-06-19T18:17:55.629Z,23.60
2018-06-19T18:20:26.425Z,23.70
2018-06-19T18:22:58.111Z,23.60
2018-06-19T18:25:27.858Z,23.50
2018-06-19T18:28:00.517Z,23.50
2018-06-19T18:30:37.668Z,23.50
2018-06-19T18:33:14.446Z,23.50
2018-06-19T18:38:21.350Z,23.50
2018-06-19T18:40:54.854Z,23.40
2018-06-19T18:43:24.695Z,23.60
2018-06-19T18:45:57.958Z,23.50
2018-06-19T18:48:29.418Z,23.40
2018-06-19T18:51:03.486Z,23.30
2018-06-19T18:53:43.053Z,23.40
2018-06-19T18:57:19.665Z,23.30
2018-06-19T18:59:50.968Z,23.30
2018-06-19T19:05:24.739Z,23.00
2018-06-19T19:08:01.882Z,23.00
2018-06-19T19:10:47.283Z,23.10
2018-06-19T19:13:24.213Z,23.10
2018-06-19T19:16:00.599Z,23.10
2018-06-19T19:21:07.317Z,23.00
2018-06-19T19:26:15.992Z,23.00
2018-06-19T19:28:52.487Z,23.00
2018-06-19T19:39:30.747Z,22.80
2018-06-19T19:42:10.495Z,22.80
2018-06-19T19:44:59.556Z,22.80
2018-06-19T19:47:41.730Z,22.60
2018-06-19T19:50:16.606Z,22.70
2018-06-19T19:53:25.960Z,22.70
2018-06-19T19:56:11.440Z,22.70
2018-06-19T19:58:56.317Z,22.80
2018-06-19T20:01:35.458Z,22.70
2018-06-19T20:04:12.891Z,22.60
2018-06-19T20:06:47.817Z,22.60
2018-06-19T20:09:19.949Z,22.60
2018-06-19T20:12:09.672Z,22.50
2018-06-19T20:14:54.630Z,22.50
2018-06-19T20:17:28.660Z,22.50
2018-06-19T20:19:59.414Z,22.50
2018-06-19T20:22:31.739Z,22.30
2018-06-19T20:25:02.321Z,22.40
2018-06-19T20:27:35.713Z,22.30
2018-06-19T20:30:10.544Z,22.30
2018-06-19T20:32:41.841Z,22.50
2018-06-19T20:35:13.673Z,22.60
2018-06-19T20:37:49.256Z,22.60
2018-06-19T20:40:25.671Z,22.60
2018-06-19T20:43:15.245Z,22.50
2018-06-19T20:45:59.348Z,22.60
2018-06-19T20:48:33.803Z,22.40
2018-06-19T20:51:11.440Z,22.30
2018-06-19T20:53:47.173Z,22.30
2018-06-19T20:56:22.005Z,22.30
2018-06-19T20:58:54.502Z,22.20
2018-06-19T21:01:29.109Z,22.20
2018-06-19T21:04:02.818Z,22.20
2018-06-19T21:06:35.831Z,22.40
2018-06-19T21:09:08.408Z,22.60
2018-06-19T21:11:43.889Z,22.70
2018-06-19T21:14:19.865Z,22.90
2018-06-19T21:16:50.058Z,22.90
2018-06-19T21:19:23.052Z,22.90
2018-06-19T21:21:54.817Z,23.00
2018-06-19T21:24:30.357Z,22.90
2018-06-19T21:27:04.401Z,23.00
2018-06-19T21:29:37.463Z,23.00
2018-06-19T21:32:10.119Z,23.10
2018-06-19T21:34:42.548Z,23.00
2018-06-19T21:37:14.254Z,22.80
2018-06-19T21:39:45.119Z,22.70
2018-06-19T21:42:18.967Z,22.70
2018-06-19T21:44:57.913Z,22.50
2018-06-19T21:47:33.934Z,22.30
2018-06-19T21:50:08.390Z,22.30
2018-06-19T21:52:39.707Z,22.30
2018-06-19T21:55:10.876Z,22.30
2018-06-19T21:57:42.843Z,22.20
2018-06-19T22:00:12.835Z,22.30
2018-06-19T22:02:42.687Z,22.30
2018-06-19T22:05:15.705Z,22.30
2018-06-19T22:07:47.202Z,22.30
2018-06-19T22:10:18.735Z,22.20
2018-06-19T22:12:49.536Z,22.10
2018-06-19T22:15:24.869Z,22.10
2018-06-19T22:18:04.212Z,22.00
2018-06-19T22:20:34.934Z,22.00
2018-06-19T22:23:12.066Z,21.90
2018-06-19T22:25:46.305Z,21.80
2018-06-19T22:28:17.057Z,21.70
2018-06-19T22:30:49.873Z,21.60
2018-06-19T22:33:20.401Z,21.50
2018-06-19T22:35:50.617Z,21.40
2018-06-19T22:38:21.812Z,21.40
2018-06-19T22:40:52.402Z,21.30
2018-06-19T22:43:21.841Z,21.40
2018-06-19T22:45:53.374Z,21.30
2018-06-19T22:48:22.949Z,21.40
2018-06-19T22:50:52.377Z,21.30
2018-06-19T22:53:23.896Z,21.30
2018-06-19T22:55:53.123Z,21.30
2018-06-19T22:58:27.216Z,21.30
2018-06-19T23:01:13.522Z,21.30
2018-06-19T23:03:43.162Z,21.20
2018-06-19T23:06:12.502Z,21.10
2018-06-19T23:08:47.077Z,21.10
2018-06-19T23:11:17.634Z,21.10
2018-06-19T23:13:46.818Z,21.10
2018-06-19T23:16:17.257Z,21.00
2018-06-19T23:18:46.775Z,21.00
2018-06-19T23:21:20.298Z,21.00
2018-06-19T23:23:49.402Z,21.00
2018-06-19T23:26:23.845Z,21.00
2018-06-19T23:28:54.150Z,20.90
2018-06-19T23:31:24.847Z,20.90
2018-06-19T23:33:55.009Z,20.90
2018-06-19T23:36:24.359Z,20.90
2018-06-19T23:38:53.700Z,20.90
2018-06-19T23:41:27.312Z,20.80
2018-06-19T23:43:56.516Z,20.80
2018-06-19T23:46:35.829Z,20.80
2018-06-19T23:49:14.455Z,20.80
2018-06-19T23:51:54.336Z,20.70
2018-06-19T23:54:32.098Z,20.70
2018-06-19T23:57:04.728Z,20.60
2018-06-19T23:59:34.753Z,20.60
